createdAt,value
2023-05-05T00:01:05.404Z,10
2023-05-05T00:16:05.116Z,9
2023-05-05T00:31:05.645Z,11
2023-05-05T00:46:05.671Z,10
2023-05-05T01:01:05.471Z,9
2023-05-05T01:16:04.609Z,8
2023-05-05T01:31:05.388Z,7
2023-05-05T01:46:04.944Z,7
2023-05-05T02:01:05.514Z,7
2023-05-05T02:16:05.193Z,7
2023-05-05T02:31:05.802Z,7
2023-05-05T02:46:05.432Z,7
2023-05-05T03:01:04.724Z,7
2023-05-05T03:16:05.431Z,7
2023-05-05T03:31:05.585Z,6
2023-05-05T03:46:05.049Z,7
2023-05-05T04:01:05.272Z,7
2023-05-05T04:16:04.807Z,7
2023-05-05T04:31:05.579Z,8
2023-05-05T04:46:05.060Z,9
2023-05-05T05:01:05.043Z,11
2023-05-05T05:16:05.824Z,9
2023-05-05T05:31:05.200Z,16
2023-05-05T05:46:07.591Z,9
2023-05-05T06:01:04.767Z,7
2023-05-05T06:16:05.247Z,6
2023-05-05T06:31:05.764Z,5
2023-05-05T06:46:05.412Z,6
2023-05-05T07:01:05.634Z,6
2023-05-05T07:16:05.244Z,8
2023-05-05T07:31:04.594Z,9
2023-05-05T07:46:05.171Z,10
2023-05-05T08:01:05.022Z,9
2023-05-05T08:16:05.080Z,5
2023-05-05T08:31:05.816Z,5
2023-05-05T08:46:05.632Z,4
2023-05-05T09:01:06.074Z,2
2023-05-05T09:16:05.825Z,2
2023-05-05T09:31:05.764Z,15
2023-05-05T09:46:05.285Z,2
2023-05-05T10:01:05.081Z,1
2023-05-05T10:16:05.024Z,1
2023-05-05T10:31:13.040Z,2
2023-05-05T10:46:04.858Z,2
2023-05-05T11:01:04.529Z,2
2023-05-05T11:30:23.988Z,1
2023-05-05T11:45:23.752Z,1
2023-05-05T12:00:24.373Z,1
2023-05-05T12:30:23.876Z,0
2023-05-05T12:30:33.727Z,0
2023-05-05T13:00:23.832Z,0
2023-05-05T13:00:33.542Z,0
2023-05-05T13:15:23.576Z,1
2023-05-05T13:30:24.355Z,1
2023-05-05T14:00:23.187Z,0
2023-05-05T14:00:23.279Z,0
2023-05-05T14:15:24.736Z,1
2023-05-05T14:30:24.277Z,1
2023-05-05T14:45:23.429Z,1
2023-05-05T15:00:24.469Z,1
2023-05-05T15:15:24.300Z,1
2023-05-05T15:30:23.829Z,2
2023-05-05T15:45:24.638Z,2
2023-05-05T16:00:23.770Z,1
2023-05-05T16:15:24.374Z,2
2023-05-05T16:30:23.763Z,1
2023-05-05T16:31:05.441Z,1
2023-05-05T16:46:04.008Z,1
2023-05-05T17:01:05.584Z,2
2023-05-05T17:16:05.064Z,1
2023-05-05T17:31:05.540Z,2
2023-05-05T17:46:05.222Z,1
2023-05-05T18:01:05.786Z,2
2023-05-05T18:16:05.000Z,2
2023-05-05T18:31:05.629Z,2
2023-05-05T18:46:05.255Z,3
2023-05-05T19:01:05.045Z,10
2023-05-05T19:16:05.852Z,3
2023-05-05T19:31:05.611Z,3
2023-05-05T19:46:05.012Z,4
2023-05-05T20:01:04.885Z,3
2023-05-05T20:16:05.651Z,4
2023-05-05T20:31:05.520Z,4
2023-05-05T20:46:04.931Z,4
2023-05-05T21:01:05.532Z,3
2023-05-05T21:16:05.079Z,4
2023-05-05T21:31:20.952Z,6
2023-05-05T21:46:04.658Z,5
2023-05-05T22:01:05.127Z,5
2023-05-05T22:16:04.775Z,4
2023-05-05T22:31:05.200Z,5
2023-05-05T22:46:04.571Z,4
2023-05-05T23:01:04.693Z,4
2023-05-05T23:16:05.249Z,4
2023-05-05T23:31:04.876Z,4
2023-05-05T23:46:05.005Z,4
